Time;durP1;ratioP1;P1;durP2;ratioP2;P2;SDS_P1;SDS_P2;PMS_P1;PMS_P2;Temp;Humidity;BMP_temperature;BMP_pressure;BME280_temperature;BME280_humidity;BME280_pressure;Samples;Min_cycle;Max_cycle;Signal;HPM_P1;HPM_P2
2022/11/03 00:01:31;;;;;;;15.50;6.75;;;8.80;1.00;;;;;;5030941;28;20805;-52
2022/11/03 00:03:57;;;;;;;15.73;6.70;;;8.80;1.00;;;;;;5049117;28;20443;-52
2022/11/03 00:06:22;;;;;;;16.55;6.60;;;8.80;1.00;;;;;;5048423;28;20397;-53
2022/11/03 00:08:48;;;;;;;16.27;6.10;;;8.70;1.00;;;;;;5048936;28;20384;-52
2022/11/03 00:11:14;;;;;;;15.60;6.70;;;8.60;1.00;;;;;;5048439;28;20739;-52
2022/11/03 00:13:41;;;;;;;18.63;7.30;;;8.60;1.00;;;;;;5049266;28;20377;-53
2022/11/03 00:16:09;;;;;;;14.85;6.78;;;8.60;1.00;;;;;;5048504;28;20412;-55
2022/11/03 00:18:35;;;;;;;13.53;6.40;;;8.70;1.00;;;;;;5048887;28;20378;-52
2022/11/03 00:21:06;;;;;;;16.02;6.25;;;8.70;1.00;;;;;;5049131;28;20385;-52
2022/11/03 00:23:34;;;;;;;16.60;6.25;;;9.30;1.00;;;;;;5052501;28;20390;-52
2022/11/03 00:26:03;;;;;;;16.85;7.35;;;8.60;1.00;;;;;;5052596;28;20898;-52
2022/11/03 00:28:33;;;;;;;15.75;6.80;;;8.60;1.00;;;;;;5051993;28;20400;-53
2022/11/03 00:31:00;;;;;;;13.77;6.53;;;8.60;1.00;;;;;;5052811;28;20378;-52
2022/11/03 00:33:37;;;;;;;18.40;6.50;;;9.90;1.00;;;;;;5051413;28;20408;-52
2022/11/03 00:36:03;;;;;;;17.85;6.97;;;10.20;1.00;;;;;;5052202;28;20413;-53
2022/11/03 00:38:29;;;;;;;13.48;7.22;;;8.40;1.00;;;;;;5051367;28;20396;-52
2022/11/03 00:40:56;;;;;;;13.82;6.35;;;9.90;1.00;;;;;;5052532;28;20386;-52
2022/11/03 00:43:23;;;;;;;15.70;6.75;;;8.40;1.00;;;;;;5051233;28;20745;-53
2022/11/03 00:45:49;;;;;;;18.55;7.32;;;8.30;1.00;;;;;;5052223;28;20420;-50
2022/11/03 00:48:30;;;;;;;21.80;7.18;;;8.30;1.00;;;;;;5051681;28;20784;-50
2022/11/03 00:51:06;;;;;;;15.38;6.93;;;8.20;1.00;;;;;;5052213;28;20468;-49
2022/11/03 00:53:34;;;;;;;16.10;6.25;;;8.20;1.00;;;;;;5051607;28;20405;-50
2022/11/03 00:56:00;;;;;;;14.35;5.85;;;9.10;1.00;;;;;;5051781;28;20729;-50
2022/11/03 00:58:26;;;;;;;12.13;5.60;;;9.80;1.00;;;;;;5051305;28;20901;-50
2022/11/03 01:00:58;;;;;;;14.23;5.57;;;8.20;1.00;;;;;;5052037;28;20470;-50
2022/11/03 01:03:24;;;;;;;14.13;5.60;;;8.10;1.00;;;;;;5050806;28;20381;-50
2022/11/03 01:08:35;;;;;;;13.68;5.53;;;8.10;1.00;;;;;;5051375;28;20372;-50
2022/11/03 01:13:56;;;;;;;14.40;5.80;;;8.20;1.00;;;;;;5051884;28;20384;-52
2022/11/03 01:16:22;;;;;;;17.30;6.47;;;8.30;1.00;;;;;;5050718;28;20405;-49
2022/11/03 01:18:49;;;;;;;15.15;5.65;;;8.20;1.00;;;;;;5051708;28;20377;-50
2022/11/03 01:21:14;;;;;;;12.65;5.45;;;8.20;1.00;;;;;;5050808;28;20392;-50
2022/11/03 01:23:41;;;;;;;13.93;6.05;;;8.20;1.00;;;;;;5051309;28;20378;-50
2022/11/03 01:26:08;;;;;;;11.43;5.43;;;8.20;1.00;;;;;;5051132;28;20392;-53
2022/11/03 01:28:37;;;;;;;12.35;5.68;;;8.20;1.00;;;;;;5051167;28;20382;-50
2022/11/03 01:31:17;;;;;;;11.43;4.97;;;8.10;1.00;;;;;;5051703;28;20389;-49
2022/11/03 01:33:46;;;;;;;12.95;5.95;;;8.10;1.00;;;;;;5050045;28;20401;-50
2022/11/03 01:36:14;;;;;;;13.05;5.40;;;8.10;1.00;;;;;;5050327;28;20401;-50
2022/11/03 01:38:40;;;;;;;11.60;5.97;;;8.00;1.00;;;;;;5032884;28;20473;-49
2022/11/03 01:41:09;;;;;;;13.05;5.20;;;8.00;1.00;;;;;;5050908;28;20393;-50
2022/11/03 01:43:37;;;;;;;16.17;5.35;;;8.70;1.00;;;;;;5032985;28;20389;-49
2022/11/03 01:46:12;;;;;;;12.55;5.10;;;8.00;1.00;;;;;;5050867;28;20782;-50
2022/11/03 01:49:04;;;;;;;16.67;6.40;;;7.90;1.00;;;;;;5051032;28;20411;-50
2022/11/03 01:51:32;;;;;;;13.02;5.70;;;7.80;1.00;;;;;;5050188;28;20662;-51
2022/11/03 01:54:02;;;;;;;13.55;5.80;;;7.70;1.00;;;;;;5050829;28;20862;-49
2022/11/03 01:56:31;;;;;;;16.58;6.00;;;7.80;1.00;;;;;;5050046;28;20405;-50
2022/11/03 01:58:57;;;;;;;12.00;5.75;;;7.80;1.00;;;;;;5050841;28;20390;-49
2022/11/03 02:01:23;;;;;;;15.13;5.90;;;7.80;1.00;;;;;;5050389;28;20396;-50
2022/11/03 02:04:00;;;;;;;13.20;6.50;;;7.70;1.00;;;;;;5050623;28;21029;-49
2022/11/03 02:06:28;;;;;;;15.43;6.10;;;7.70;1.00;;;;;;5049897;28;20405;-50
2022/11/03 02:09:06;;;;;;;13.20;5.57;;;7.70;1.00;;;;;;5050196;28;20751;-50
2022/11/03 02:14:18;;;;;;;14.57;5.93;;;7.40;1.00;;;;;;5049916;28;20915;-49
2022/11/03 02:16:53;;;;;;;12.90;5.97;;;8.60;1.00;;;;;;5050188;28;20417;-51
2022/11/03 02:19:37;;;;;;;15.02;6.25;;;7.50;1.00;;;;;;5049753;28;20408;-50
2022/11/03 02:22:36;;;;;;;15.07;6.70;;;7.80;1.00;;;;;;5050267;28;20382;-50
2022/11/03 02:25:05;;;;;;;16.40;6.47;;;7.60;1.00;;;;;;5050479;28;20389;-50
2022/11/03 02:27:31;;;;;;;14.57;6.68;;;7.60;1.00;;;;;;5049339;28;20388;-50
2022/11/03 02:29:57;;;;;;;15.90;7.07;;;7.60;1.00;;;;;;5050406;28;20472;-49
2022/11/03 02:32:28;;;;;;;15.35;7.60;;;7.70;1.00;;;;;;5049233;28;20408;-50
2022/11/03 02:35:15;;;;;;;15.25;7.65;;;7.60;1.00;;;;;;5050111;28;20420;-50
2022/11/03 02:37:46;;;;;;;14.93;7.03;;;7.70;1.00;;;;;;5050115;28;20759;-51
2022/11/03 02:40:37;;;;;;;17.70;7.60;;;7.60;1.00;;;;;;5049305;28;20839;-50
2022/11/03 02:43:04;;;;;;;14.25;6.50;;;7.50;1.00;;;;;;5049417;28;20485;-50
2022/11/03 02:45:30;;;;;;;14.48;6.93;;;8.10;1.00;;;;;;5049171;28;20377;-50
2022/11/03 02:47:59;;;;;;;13.40;6.20;;;7.20;1.00;;;;;;5049664;28;20377;-50
2022/11/03 02:50:29;;;;;;;17.48;7.70;;;7.20;1.00;;;;;;5048918;28;20717;-50
2022/11/03 02:52:55;;;;;;;16.70;6.72;;;7.20;1.00;;;;;;5049690;28;20393;-50
2022/11/03 02:55:51;;;;;;;14.23;6.80;;;7.30;1.00;;;;;;5049051;28;20378;-50
2022/11/03 02:58:48;;;;;;;15.13;7.07;;;8.50;1.00;;;;;;5049159;28;20443;-50
2022/11/03 03:01:35;;;;;;;14.82;7.45;;;7.40;1.00;;;;;;5048898;28;20386;-50
2022/11/03 03:04:08;;;;;;;13.65;7.25;;;7.40;1.00;;;;;;5050038;28;20508;-49
2022/11/03 03:06:44;;;;;;;13.98;7.10;;;7.40;1.00;;;;;;5031361;28;20849;-49
2022/11/03 03:09:16;;;;;;;14.45;7.22;;;7.30;1.00;;;;;;5049346;28;20405;-52
2022/11/03 03:11:44;;;;;;;18.15;7.93;;;7.40;1.00;;;;;;5049843;28;20847;-49
2022/11/03 03:14:15;;;;;;;16.20;7.50;;;7.40;1.00;;;;;;5049019;28;20397;-54
2022/11/03 03:17:06;;;;;;;16.98;8.07;;;8.10;1.00;;;;;;5049665;28;20504;-50
2022/11/03 03:19:47;;;;;;;16.30;7.50;;;7.40;1.00;;;;;;5049202;28;20381;-50
2022/11/03 03:22:42;;;;;;;16.17;7.97;;;7.50;1.00;;;;;;5048889;28;20385;-50
2022/11/03 03:25:25;;;;;;;18.63;7.88;;;7.40;1.00;;;;;;5049428;28;20393;-53
2022/11/03 03:27:58;;;;;;;25.20;8.23;;;7.40;1.00;;;;;;5065876;28;20898;-50
2022/11/03 03:30:24;;;;;;;15.47;7.40;;;7.40;1.00;;;;;;5068224;28;20400;-50
2022/11/03 03:32:51;;;;;;;15.82;7.78;;;7.30;1.00;;;;;;5069156;28;20404;-49
2022/11/03 03:35:25;;;;;;;20.48;8.02;;;7.30;1.00;;;;;;5068400;28;20432;-49
2022/11/03 03:37:54;;;;;;;23.10;7.53;;;8.00;1.00;;;;;;5069157;28;20383;-50
2022/11/03 03:40:24;;;;;;;17.13;7.20;;;7.20;1.00;;;;;;5068436;28;20383;-50
2022/11/03 03:42:51;;;;;;;12.70;7.10;;;7.30;1.00;;;;;;5069666;28;20372;-49
2022/11/03 03:45:19;;;;;;;18.05;7.00;;;9.10;1.00;;;;;;5068984;28;20423;-49
2022/11/03 03:47:45;;;;;;;15.35;8.18;;;7.40;1.00;;;;;;5068921;28;20383;-50
2022/11/03 03:50:11;;;;;;;18.55;7.95;;;8.20;1.00;;;;;;5067631;28;20400;-53
2022/11/03 03:52:37;;;;;;;15.45;7.30;;;7.30;1.00;;;;;;5068978;28;20433;-50
2022/11/03 03:55:06;;;;;;;15.73;7.67;;;7.30;1.00;;;;;;5069236;28;20470;-49
2022/11/03 03:57:32;;;;;;;17.20;7.50;;;7.30;1.00;;;;;;5070974;28;20418;-50
2022/11/03 03:59:57;;;;;;;18.05;8.30;;;7.30;1.00;;;;;;5072744;28;20736;-50
2022/11/03 04:02:23;;;;;;;18.00;7.67;;;9.00;1.00;;;;;;5071742;28;20967;-49
2022/11/03 04:04:49;;;;;;;16.45;7.78;;;7.70;1.00;;;;;;5055403;28;20388;-49
2022/11/03 04:09:58;;;;;;;18.83;7.72;;;7.40;1.00;;;;;;5053131;28;20817;-50
2022/11/03 04:23:23;;;;;;;19.00;8.60;;;7.40;12.40;;;;;;5072650;28;20413;-50
2022/11/03 04:25:54;;;;;;;18.03;9.03;;;7.90;19.00;;;;;;5072743;28;20380;-50
2022/11/03 04:28:20;;;;;;;16.38;7.40;;;7.40;19.20;;;;;;5071353;28;21302;-50
2022/11/03 04:30:46;;;;;;;15.00;7.55;;;7.40;22.10;;;;;;5071155;28;20404;-51
2022/11/03 04:33:16;;;;;;;20.70;8.40;;;7.40;23.50;;;;;;5071405;28;20403;-50
2022/11/03 04:35:45;;;;;;;15.98;7.80;;;7.50;12.70;;;;;;5070881;28;20561;-50
2022/11/03 04:38:14;;;;;;;14.97;8.13;;;7.40;3.00;;;;;;5069384;28;20391;-50
2022/11/03 04:40:45;;;;;;;16.70;7.65;;;7.40;1.00;;;;;;5072307;28;20388;-50
2022/11/03 04:43:17;;;;;;;18.48;8.30;;;7.40;2.80;;;;;;5069744;28;20829;-50
2022/11/03 04:45:44;;;;;;;14.23;7.35;;;7.40;12.50;;;;;;5071299;28;20388;-51
2022/11/03 04:48:15;;;;;;;17.67;7.70;;;7.50;27.00;;;;;;5071197;28;20376;-50
2022/11/03 04:50:41;;;;;;;18.88;8.30;;;7.40;34.40;;;;;;5072380;28;20416;-50
2022/11/03 04:53:12;;;;;;;14.80;7.47;;;8.50;23.30;;;;;;5072226;28;20380;-51
2022/11/03 04:55:43;;;;;;;17.77;8.30;;;7.70;13.20;;;;;;5071646;28;20776;-50
2022/11/03 04:58:20;;;;;;;16.33;6.90;;;7.50;13.30;;;;;;5072099;28;20380;-53
2022/11/03 05:00:55;;;;;;;17.85;6.70;;;7.40;1.00;;;;;;5071870;28;20392;-51
2022/11/03 05:03:32;;;;;;;17.95;7.80;;;7.30;4.90;;;;;;5069798;28;20863;-51
2022/11/03 05:06:29;;;;;;;14.40;6.60;;;8.30;1.50;;;;;;5054165;28;20392;-50
2022/11/03 05:09:01;;;;;;;17.20;7.30;;;7.40;1.00;;;;;;5049050;28;20384;-50
2022/11/03 05:11:39;;;;;;;16.08;7.10;;;8.30;1.00;;;;;;5069440;28;20380;-50
2022/11/03 05:14:14;;;;;;;14.20;6.97;;;7.30;1.00;;;;;;5051847;28;20382;-50
2022/11/03 05:16:40;;;;;;;12.98;6.70;;;8.10;1.00;;;;;;5051610;28;20420;-50
2022/11/03 05:19:13;;;;;;;14.43;6.90;;;7.30;1.00;;;;;;5051509;28;20405;-49
2022/11/03 05:21:39;;;;;;;15.73;7.50;;;7.60;1.00;;;;;;5066483;28;20387;-50
2022/11/03 05:24:11;;;;;;;13.55;7.60;;;7.40;1.00;;;;;;5072986;28;21098;-51
2022/11/03 05:26:37;;;;;;;15.73;6.32;;;7.30;1.00;;;;;;5069021;28;20400;-50
2022/11/03 05:29:17;;;;;;;21.50;6.93;;;7.30;1.00;;;;;;5071645;28;20379;-50
2022/11/03 05:31:45;;;;;;;19.23;8.15;;;7.30;1.00;;;;;;5050620;28;20436;-53
2022/11/03 05:34:29;;;;;;;12.27;6.00;;;7.20;1.00;;;;;;5070380;28;20392;-54
2022/11/03 05:36:57;;;;;;;14.93;7.50;;;8.70;1.00;;;;;;5033499;28;20410;-50
2022/11/03 05:39:33;;;;;;;13.02;6.10;;;7.30;1.00;;;;;;5063995;28;20774;-50
2022/11/03 05:42:00;;;;;;;16.60;7.13;;;7.10;1.00;;;;;;5061967;28;20412;-50
2022/11/03 05:44:32;;;;;;;17.02;6.25;;;7.70;1.00;;;;;;5066616;28;20523;-51
2022/11/03 05:46:58;;;;;;;15.57;6.00;;;7.10;1.00;;;;;;5037442;28;20409;-52
2022/11/03 05:49:24;;;;;;;13.57;6.40;;;8.20;1.00;;;;;;5068114;28;20374;-50
2022/11/03 05:51:50;;;;;;;16.42;6.97;;;7.00;1.00;;;;;;5061046;28;20476;-50
2022/11/03 05:54:22;;;;;;;13.60;6.23;;;7.00;2.00;;;;;;5055695;28;20403;-50
2022/11/03 05:56:47;;;;;;;13.10;6.00;;;7.90;1.00;;;;;;5049617;28;20782;-49
2022/11/03 05:59:16;;;;;;;15.50;6.57;;;7.00;1.00;;;;;;5065665;28;20392;-53
2022/11/03 06:01:42;;;;;;;12.80;6.72;;;7.00;1.00;;;;;;5066531;28;20396;-49
2022/11/03 06:04:27;;;;;;;15.80;6.90;;;7.60;1.00;;;;;;5067871;28;20760;-50
2022/11/03 06:06:54;;;;;;;12.30;6.40;;;7.00;1.00;;;;;;5070918;28;20392;-49
2022/11/03 06:09:23;;;;;;;13.55;6.75;;;7.00;1.00;;;;;;5069582;28;20392;-51
2022/11/03 06:11:52;;;;;;;13.73;6.00;;;7.00;1.00;;;;;;5071900;28;20482;-50
2022/11/03 06:14:19;;;;;;;19.30;8.40;;;7.00;1.00;;;;;;5069549;28;20490;-49
2022/11/03 06:17:07;;;;;;;15.40;6.88;;;7.50;1.00;;;;;;5070272;28;20406;-49
2022/11/03 06:19:46;;;;;;;16.42;7.00;;;7.00;1.00;;;;;;5069336;28;20418;-50
2022/11/03 06:22:33;;;;;;;20.17;7.30;;;7.00;1.00;;;;;;5069438;28;20371;-52
2022/11/03 06:25:10;;;;;;;15.40;7.85;;;7.00;1.00;;;;;;5052032;28;20435;-49
2022/11/03 06:27:36;;;;;;;13.98;7.13;;;7.00;1.00;;;;;;5070181;28;20384;-50
2022/11/03 06:30:24;;;;;;;12.32;6.80;;;7.10;1.00;;;;;;5065714;28;20398;-50
2022/11/03 06:32:50;;;;;;;13.73;6.80;;;7.20;1.00;;;;;;5028621;28;20407;-49
2022/11/03 06:35:16;;;;;;;16.33;7.57;;;8.80;1.00;;;;;;5029168;28;20448;-50
2022/11/03 06:37:42;;;;;;;17.17;8.07;;;7.30;1.00;;;;;;5029912;28;20423;-50
2022/11/03 06:40:14;;;;;;;15.10;7.90;;;7.30;1.00;;;;;;5030243;28;20505;-49
2022/11/03 06:42:40;;;;;;;16.05;7.30;;;7.40;1.00;;;;;;5029716;28;20406;-50
2022/11/03 06:45:18;;;;;;;17.90;7.40;;;7.60;1.00;;;;;;5030253;28;20458;-52
2022/11/03 06:47:43;;;;;;;17.10;7.03;;;7.70;1.00;;;;;;5030081;28;20749;-52
2022/11/03 06:50:30;;;;;;;16.43;7.13;;;7.80;1.00;;;;;;5030025;28;20394;-50
2022/11/03 06:52:57;;;;;;;17.42;7.07;;;7.90;1.00;;;;;;5030054;28;20425;-50
2022/11/03 06:55:25;;;;;;;16.60;7.28;;;8.20;1.00;;;;;;5029369;28;20386;-50
2022/11/03 06:57:59;;;;;;;15.60;6.97;;;8.30;1.00;;;;;;5029932;28;20411;-50
2022/11/03 07:00:28;;;;;;;17.45;7.82;;;8.30;1.00;;;;;;5029105;28;20387;-53
2022/11/03 07:03:12;;;;;;;15.55;6.85;;;8.50;1.00;;;;;;5046713;28;20485;-52
2022/11/03 07:05:38;;;;;;;19.15;8.00;;;8.70;1.00;;;;;;5042958;28;20409;-53
2022/11/03 07:08:22;;;;;;;15.35;7.00;;;8.80;1.00;;;;;;5049583;28;20389;-53
2022/11/03 07:10:56;;;;;;;16.75;8.13;;;9.00;1.00;;;;;;5049641;28;20467;-52
2022/11/03 07:13:23;;;;;;;18.67;7.60;;;9.10;1.00;;;;;;5048687;28;20416;-53
2022/11/03 07:15:50;;;;;;;13.70;7.37;;;9.30;1.00;;;;;;5049636;28;20405;-51
2022/11/03 07:18:34;;;;;;;13.68;6.57;;;9.80;99.90;;;;;;5048856;28;20378;-51
2022/11/03 07:21:21;;;;;;;14.20;7.10;;;10.20;99.90;;;;;;5049453;28;20382;-51
2022/11/03 07:23:46;;;;;;;16.83;8.50;;;10.60;1.00;;;;;;5049660;28;20390;-51
2022/11/03 07:26:12;;;;;;;14.68;8.20;;;10.90;1.00;;;;;;5049059;28;20392;-54
2022/11/03 07:28:38;;;;;;;15.83;7.50;;;11.10;1.00;;;;;;5049059;28;20481;-52
2022/11/03 07:31:17;;;;;;;17.10;7.50;;;11.50;99.90;;;;;;5049472;28;20409;-51
2022/11/03 07:33:43;;;;;;;16.52;6.93;;;12.10;99.90;;;;;;5071463;28;20453;-51
2022/11/03 07:36:14;;;;;;;13.60;6.70;;;12.90;99.90;;;;;;5073327;28;20404;-51
2022/11/03 07:38:43;;;;;;;12.48;6.28;;;13.70;1.00;;;;;;5073180;28;20458;-53
2022/11/03 07:41:17;;;;;;;15.18;6.95;;;14.80;99.90;;;;;;5073251;28;20383;-53
2022/11/03 07:43:53;;;;;;;13.77;5.68;;;15.40;1.00;;;;;;5073210;28;20383;-51
2022/11/03 07:46:21;;;;;;;17.00;7.00;;;15.90;1.00;;;;;;5072340;28;20380;-51
2022/11/03 07:48:49;;;;;;;18.48;6.10;;;16.10;1.00;;;;;;5073178;28;20394;-51
2022/11/03 07:51:21;;;;;;;13.95;5.93;;;15.80;1.00;;;;;;5072292;28;20458;-54
2022/11/03 07:53:49;;;;;;;12.63;5.30;;;15.30;1.00;;;;;;5073076;28;20380;-52
2022/11/03 07:56:22;;;;;;;12.75;5.68;;;14.80;1.00;;;;;;5072179;28;20395;-55
2022/11/03 07:59:26;;;;;;;14.15;5.60;;;14.60;1.00;;;;;;5072944;28;20380;-51
2022/11/03 08:01:54;;;;;;;15.10;6.28;;;14.60;1.00;;;;;;5070442;28;20419;-52
2022/11/03 08:04:32;;;;;;;13.23;5.90;;;14.60;1.00;;;;;;5072006;28;20380;-52
2022/11/03 08:06:58;;;;;;;13.35;4.60;;;14.50;1.00;;;;;;5072911;28;20402;-51
2022/11/03 08:09:24;;;;;;;12.60;5.13;;;14.50;1.00;;;;;;5072259;28;20383;-52
2022/11/03 08:11:50;;;;;;;13.00;5.47;;;14.30;1.00;;;;;;5072883;28;20929;-52
2022/11/03 08:14:16;;;;;;;13.88;5.60;;;14.00;1.00;;;;;;5067980;28;20457;-55
2022/11/03 08:16:41;;;;;;;12.80;5.75;;;13.60;1.00;;;;;;5067529;28;20439;-51
2022/11/03 08:19:07;;;;;;;13.00;5.50;;;13.40;1.00;;;;;;5072416;28;20422;-52
2022/11/03 08:21:33;;;;;;;16.88;5.55;;;13.20;1.00;;;;;;5068604;28;20869;-51
2022/11/03 08:23:59;;;;;;;12.43;5.20;;;13.10;1.00;;;;;;5066578;28;20419;-51
2022/11/03 08:26:25;;;;;;;13.60;5.50;;;13.10;1.00;;;;;;5058241;28;20407;-51
2022/11/03 08:28:51;;;;;;;14.32;5.47;;;13.40;1.00;;;;;;5065857;28;20414;-51
2022/11/03 08:31:17;;;;;;;14.40;5.00;;;13.50;1.00;;;;;;5070793;28;20881;-55
2022/11/03 08:33:42;;;;;;;10.70;4.60;;;13.90;1.00;;;;;;5071458;28;20873;-51
2022/11/03 08:36:08;;;;;;;11.80;5.00;;;14.00;1.00;;;;;;5070139;28;20403;-51
2022/11/03 08:38:35;;;;;;;14.40;5.45;;;13.90;1.00;;;;;;5071474;28;20402;-51
2022/11/03 08:41:01;;;;;;;15.23;4.53;;;13.90;1.00;;;;;;5072434;28;20387;-51
2022/11/03 08:43:27;;;;;;;14.10;4.68;;;13.90;1.00;;;;;;5068105;28;20885;-52
2022/11/03 08:45:53;;;;;;;12.50;4.97;;;13.90;1.00;;;;;;5061404;28;20424;-52
2022/11/03 08:48:26;;;;;;;8.85;4.15;;;14.20;1.00;;;;;;5052077;28;20458;-53
2022/11/03 08:50:55;;;;;;;10.10;4.40;;;14.00;1.00;;;;;;5051956;28;20805;-52
2022/11/03 08:53:25;;;;;;;12.00;4.90;;;13.80;1.00;;;;;;5063561;28;21128;-51
2022/11/03 08:55:54;;;;;;;10.93;4.30;;;14.00;1.00;;;;;;5071447;28;20411;-52
2022/11/03 08:58:20;;;;;;;10.50;4.80;;;14.10;1.00;;;;;;5071081;28;20406;-53
2022/11/03 09:00:47;;;;;;;15.00;5.85;;;14.50;1.00;;;;;;5071760;28;20383;-52
2022/11/03 09:03:12;;;;;;;15.98;5.32;;;15.00;1.00;;;;;;5071558;28;20400;-52
2022/11/03 09:05:39;;;;;;;13.50;5.32;;;15.00;1.00;;;;;;5071090;28;20441;-52
2022/11/03 09:08:04;;;;;;;14.87;5.93;;;15.30;1.00;;;;;;5066346;28;20407;-52
2022/11/03 09:10:30;;;;;;;11.07;4.85;;;15.40;1.00;;;;;;5070676;28;20372;-52
2022/11/03 09:12:56;;;;;;;11.70;5.33;;;15.90;1.00;;;;;;5070893;28;20395;-57
2022/11/03 09:15:22;;;;;;;12.00;5.35;;;16.30;1.00;;;;;;5070205;28;20380;-52
2022/11/03 09:17:47;;;;;;;12.17;5.20;;;16.50;1.00;;;;;;5070989;28;20430;-53
2022/11/03 09:20:13;;;;;;;12.27;5.70;;;16.40;1.00;;;;;;5071266;28;20372;-54
2022/11/03 09:22:39;;;;;;;12.02;5.40;;;16.30;1.00;;;;;;5070072;28;20427;-52
2022/11/03 09:25:05;;;;;;;14.33;6.10;;;16.20;1.00;;;;;;5050031;28;20417;-52
2022/11/03 09:27:31;;;;;;;14.00;5.73;;;16.60;1.00;;;;;;5065686;28;20861;-53
2022/11/03 09:29:57;;;;;;;11.75;5.50;;;16.80;1.00;;;;;;5070752;28;20483;-53
2022/11/03 09:32:23;;;;;;;12.10;5.87;;;16.60;1.00;;;;;;5069754;28;20944;-53
2022/11/03 09:34:49;;;;;;;12.10;5.97;;;16.70;1.00;;;;;;5063771;28;20399;-52
2022/11/03 09:37:15;;;;;;;11.13;5.47;;;16.80;1.00;;;;;;5068946;28;20885;-55
2022/11/03 09:39:41;;;;;;;10.82;5.20;;;16.80;1.00;;;;;;5083119;28;20408;-55
2022/11/03 09:42:09;;;;;;;15.55;5.43;;;16.80;1.00;;;;;;5076125;28;20427;-52
2022/11/03 09:44:35;;;;;;;11.70;5.28;;;17.00;1.00;;;;;;5086554;28;20907;-52
2022/11/03 09:47:02;;;;;;;12.32;5.25;;;17.40;1.00;;;;;;5076698;28;20386;-52
2022/11/03 09:49:31;;;;;;;10.30;4.60;;;16.10;1.00;;;;;;5089990;28;20474;-52
2022/11/03 09:51:57;;;;;;;13.23;5.30;;;17.10;1.00;;;;;;5076964;28;20379;-52
2022/11/03 09:54:23;;;;;;;12.73;4.85;;;17.00;1.00;;;;;;5069539;28;20387;-52
2022/11/03 09:56:49;;;;;;;13.07;4.95;;;16.80;99.90;;;;;;5086313;28;20417;-52
2022/11/03 09:59:17;;;;;;;11.48;4.88;;;16.90;1.00;;;;;;5078047;28;20740;-56
2022/11/03 10:01:47;;;;;;;11.67;5.07;;;16.80;99.90;;;;;;5056082;28;20875;-52
2022/11/03 10:04:13;;;;;;;10.18;4.78;;;16.70;99.90;;;;;;5066706;28;20427;-52
2022/11/03 10:06:39;;;;;;;12.30;4.87;;;16.80;99.90;;;;;;5067502;28;20400;-52
2022/11/03 10:09:10;;;;;;;10.80;4.60;;;16.40;99.90;;;;;;5069947;28;20422;-52
2022/11/03 10:11:37;;;;;;;12.88;3.92;;;16.10;1.00;;;;;;5069504;28;20391;-53
2022/11/03 10:14:03;;;;;;;11.32;4.10;;;15.90;99.90;;;;;;5070061;28;20391;-51
2022/11/03 10:16:29;;;;;;;11.95;3.85;;;15.90;1.00;;;;;;5069228;28;20482;-52
2022/11/03 10:18:54;;;;;;;14.50;4.00;;;15.80;1.00;;;;;;5070110;28;20929;-52
2022/11/03 10:21:28;;;;;;;14.37;4.53;;;15.60;1.00;;;;;;5048156;28;20408;-53
2022/11/03 10:23:54;;;;;;;13.00;5.65;;;15.70;1.00;;;;;;5069579;28;20435;-52
2022/11/03 10:26:20;;;;;;;11.57;4.97;;;15.60;1.00;;;;;;5067359;28;20494;-54
2022/11/03 10:28:59;;;;;;;10.90;4.00;;;15.50;1.00;;;;;;5069618;28;20380;-52
2022/11/03 10:31:32;;;;;;;11.32;4.30;;;15.30;1.00;;;;;;5067163;28;20740;-52
2022/11/03 10:33:58;;;;;;;14.50;5.13;;;15.10;1.00;;;;;;5064238;28;20448;-52
2022/11/03 10:36:29;;;;;;;10.30;4.88;;;15.00;1.00;;;;;;5067869;28;20521;-52
2022/11/03 10:38:55;;;;;;;13.05;4.85;;;15.00;1.00;;;;;;5066746;28;20710;-52
2022/11/03 10:41:26;;;;;;;11.80;5.00;;;14.90;1.00;;;;;;5066807;28;20488;-52
2022/11/03 10:44:18;;;;;;;12.98;5.20;;;14.80;1.00;;;;;;5050908;28;20753;-52
2022/11/03 10:47:04;;;;;;;9.27;4.22;;;14.60;1.00;;;;;;5053569;28;20557;-52
2022/11/03 10:49:37;;;;;;;12.30;4.17;;;14.70;1.00;;;;;;5068177;28;20768;-53
2022/11/03 10:52:18;;;;;;;12.60;4.50;;;14.70;1.00;;;;;;5066198;28;20401;-52
2022/11/03 10:54:44;;;;;;;10.65;5.00;;;14.80;1.00;;;;;;5067538;28;20518;-52
2022/11/03 10:57:09;;;;;;;15.88;4.80;;;14.80;1.00;;;;;;5069512;28;20503;-53
2022/11/03 10:59:37;;;;;;;11.10;4.82;;;14.60;1.00;;;;;;5065805;28;20406;-52
2022/11/03 11:02:15;;;;;;;12.85;4.60;;;14.60;1.00;;;;;;5065272;28;20892;-52
2022/11/03 11:04:41;;;;;;;10.37;4.60;;;14.60;1.00;;;;;;5066302;28;20783;-53
2022/11/03 11:07:23;;;;;;;11.65;4.50;;;14.70;1.00;;;;;;5065862;28;20420;-52
2022/11/03 11:09:49;;;;;;;13.85;4.00;;;14.80;1.00;;;;;;5066002;28;20798;-52
2022/11/03 11:12:22;;;;;;;10.20;4.00;;;14.80;1.00;;;;;;5067347;28;20545;-52
2022/11/03 11:14:57;;;;;;;9.95;4.53;;;15.00;1.00;;;;;;5068251;28;20896;-52
2022/11/03 11:17:41;;;;;;;10.18;3.55;;;15.10;1.00;;;;;;5062911;28;20420;-52
2022/11/03 11:20:31;;;;;;;9.88;3.30;;;15.20;1.00;;;;;;5066697;28;20448;-52
2022/11/03 11:23:25;;;;;;;12.75;3.28;;;15.00;1.00;;;;;;5066720;28;20411;-52
2022/11/03 11:26:09;;;;;;;8.95;2.60;;;15.00;1.00;;;;;;5066661;28;20411;-51
2022/11/03 11:28:36;;;;;;;8.10;3.30;;;15.00;1.00;;;;;;5066297;28;20885;-52
2022/11/03 11:31:22;;;;;;;9.90;3.50;;;15.00;1.00;;;;;;5069180;28;20384;-52
2022/11/03 11:33:48;;;;;;;9.25;3.28;;;14.90;1.00;;;;;;5065712;28;20447;-51
2022/11/03 11:36:23;;;;;;;10.63;3.92;;;14.80;1.00;;;;;;5068846;28;21122;-52
2022/11/03 11:38:50;;;;;;;10.40;3.60;;;14.80;1.00;;;;;;5066234;28;20382;-52
2022/11/03 11:41:15;;;;;;;10.50;3.95;;;14.90;1.00;;;;;;5068760;28;20434;-53
2022/11/03 11:43:41;;;;;;;11.17;3.30;;;14.70;1.00;;;;;;5068018;28;20384;-52
2022/11/03 11:46:33;;;;;;;9.73;3.30;;;14.80;1.00;;;;;;5068825;28;20382;-52
2022/11/03 11:49:01;;;;;;;9.88;3.30;;;14.80;1.00;;;;;;5062597;28;20515;-51
2022/11/03 11:51:27;;;;;;;10.07;3.33;;;14.80;1.00;;;;;;5065885;28;20419;-52
2022/11/03 11:53:53;;;;;;;9.93;3.23;;;14.80;1.00;;;;;;5063773;28;20407;-51
2022/11/03 11:56:19;;;;;;;8.15;3.00;;;14.80;1.00;;;;;;5068072;28;20419;-55
2022/11/03 11:58:55;;;;;;;7.67;3.60;;;14.90;1.00;;;;;;5068321;28;20429;-52
2022/11/03 12:01:31;;;;;;;10.00;3.40;;;14.90;1.00;;;;;;5067969;28;20776;-54
2022/11/03 12:04:18;;;;;;;9.87;4.10;;;14.80;1.00;;;;;;5067291;28;20857;-52
2022/11/03 12:06:43;;;;;;;10.25;3.85;;;14.80;1.00;;;;;;5065103;28;20416;-52
2022/11/03 12:09:12;;;;;;;11.43;4.30;;;14.90;1.00;;;;;;5062939;28;20861;-52
2022/11/03 12:11:45;;;;;;;12.80;4.10;;;14.90;1.00;;;;;;5053182;28;20409;-51
2022/11/03 12:14:23;;;;;;;10.80;3.78;;;14.80;1.00;;;;;;5058011;28;20388;-51
2022/11/03 12:16:49;;;;;;;9.40;3.78;;;14.90;1.00;;;;;;5057438;28;20420;-51
2022/11/03 12:19:33;;;;;;;11.13;4.43;;;14.90;1.00;;;;;;5060711;28;20865;-52
2022/11/03 12:22:00;;;;;;;9.82;3.50;;;14.90;1.00;;;;;;5062380;28;20397;-51
2022/11/03 12:24:32;;;;;;;10.40;3.60;;;14.90;1.00;;;;;;5065281;28;20406;-52
2022/11/03 12:27:02;;;;;;;10.80;4.27;;;14.80;1.00;;;;;;5072344;28;20395;-52
2022/11/03 12:29:29;;;;;;;12.33;3.77;;;14.80;1.00;;;;;;5071451;28;20378;-53
2022/11/03 12:31:54;;;;;;;10.98;3.70;;;14.80;1.00;;;;;;5072209;28;20814;-51
2022/11/03 12:34:20;;;;;;;10.13;3.90;;;14.90;1.00;;;;;;5071638;28;20383;-55
2022/11/03 12:36:45;;;;;;;10.50;4.33;;;14.90;1.00;;;;;;5072451;28;20406;-51
2022/11/03 12:39:11;;;;;;;10.07;4.70;;;14.90;1.00;;;;;;5071904;28;20399;-50
2022/11/03 12:41:37;;;;;;;9.98;3.50;;;14.90;1.00;;;;;;5071424;28;20474;-51
2022/11/03 12:44:03;;;;;;;14.93;5.38;;;14.90;1.00;;;;;;5072352;28;20502;-50
2022/11/03 12:46:28;;;;;;;12.82;5.50;;;14.90;1.00;;;;;;5067678;28;20727;-51
2022/11/03 12:48:54;;;;;;;14.10;5.47;;;14.80;1.00;;;;;;5071791;28;20521;-52
2022/11/03 12:51:22;;;;;;;16.60;6.18;;;14.90;1.00;;;;;;5066742;28;20395;-55
2022/11/03 12:53:48;;;;;;;14.02;4.97;;;14.80;1.00;;;;;;5065619;28;20400;-52
2022/11/03 12:56:15;;;;;;;16.77;5.60;;;14.60;1.00;;;;;;5069288;28;20921;-52
2022/11/03 12:58:41;;;;;;;15.30;4.60;;;14.50;1.00;;;;;;5045724;28;20390;-51
2022/11/03 13:01:07;;;;;;;11.38;5.00;;;14.40;1.00;;;;;;5064886;28;20548;-52
2022/11/03 13:03:34;;;;;;;15.90;5.45;;;14.40;1.00;;;;;;5069233;28;20479;-52
2022/11/03 13:06:03;;;;;;;11.23;5.10;;;14.30;1.00;;;;;;5071302;28;20388;-52
2022/11/03 13:08:31;;;;;;;11.15;4.20;;;14.40;1.00;;;;;;5070607;28;20437;-52
2022/11/03 13:10:57;;;;;;;11.00;4.75;;;14.50;1.00;;;;;;5071242;28;20383;-52
2022/11/03 13:13:23;;;;;;;11.48;4.25;;;14.40;1.00;;;;;;5067577;28;20380;-52
2022/11/03 13:15:48;;;;;;;11.37;4.50;;;14.40;1.00;;;;;;5071167;28;20410;-52
2022/11/03 13:18:14;;;;;;;10.90;4.70;;;14.40;1.00;;;;;;5071315;28;20438;-52
2022/11/03 13:20:40;;;;;;;13.48;4.82;;;14.50;1.00;;;;;;5070529;28;20411;-52
2022/11/03 13:23:05;;;;;;;14.50;4.60;;;14.40;1.00;;;;;;5064981;28;20446;-52
2022/11/03 13:25:31;;;;;;;11.00;5.00;;;14.30;1.00;;;;;;5061086;28;20381;-52
2022/11/03 13:27:57;;;;;;;11.50;4.57;;;14.20;1.00;;;;;;5051219;28;20384;-52
2022/11/03 13:30:24;;;;;;;12.37;5.07;;;14.10;1.00;;;;;;5069587;28;20454;-52
2022/11/03 13:32:50;;;;;;;10.65;5.00;;;14.00;1.00;;;;;;5070678;28;20810;-52